Time;durP1;ratioP1;P1;durP2;ratioP2;P2;SDS_P1;SDS_P2;PMS_P1;PMS_P2;Temp;Humidity;BMP_temperature;BMP_pressure;BME280_temperature;BME280_humidity;BME280_pressure;Samples;Min_cycle;Max_cycle;Signal;HPM_P1;HPM_P2
2022/04/23 00:00:04;;;;;;;;;;;21.30;35.50;;;;;;5141791;27;20297;-58
2022/04/23 00:02:30;;;;;;;;;;;21.20;35.70;;;;;;5137593;27;20355;-59
2022/04/23 00:04:56;;;;;;;;;;;21.20;35.70;;;;;;5146165;27;19927;-54
2022/04/23 00:07:22;;;;;;;;;;;21.10;35.90;;;;;;5141667;27;20290;-59
2022/04/23 00:09:47;;;;;;;;;;;21.30;35.70;;;;;;5141650;27;20181;-58
2022/04/23 00:12:13;;;;;;;;;;;21.30;35.60;;;;;;5147350;27;19923;-59
2022/04/23 00:14:39;;;;;;;;;;;21.20;35.80;;;;;;5141847;27;19923;-49
2022/04/23 00:17:05;;;;;;;;;;;21.10;36.00;;;;;;5145867;27;19930;-57
2022/04/23 00:19:30;;;;;;;;;;;21.20;35.90;;;;;;5141097;27;19962;-54
2022/04/23 00:21:56;;;;;;;;;;;21.10;36.10;;;;;;5138821;27;19927;-54
2022/04/23 00:24:22;;;;;;;;;;;21.30;36.00;;;;;;5146492;27;19970;-58
2022/04/23 00:26:48;;;;;;;;;;;21.30;35.90;;;;;;5141567;27;20301;-59
2022/04/23 00:29:13;;;;;;;;;;;21.10;36.10;;;;;;5141521;27;19958;-54
2022/04/23 00:31:41;;;;;;;;;;;21.20;36.10;;;;;;5146910;27;19941;-59
2022/04/23 00:34:07;;;;;;;;;;;21.20;36.00;;;;;;5141513;27;20067;-57
2022/04/23 00:36:33;;;;;;;;;;;21.30;35.90;;;;;;5143037;27;20375;-53
2022/04/23 00:38:59;;;;;;;;;;;21.20;36.10;;;;;;5142319;27;20472;-58
2022/04/23 00:44:09;;;;;;;;;;;21.20;36.20;;;;;;5146055;27;19927;-57
2022/04/23 00:46:35;;;;;;;;;;;21.20;36.30;;;;;;5142259;27;20378;-58
2022/04/23 00:49:02;;;;;;;;;;;21.20;36.30;;;;;;5141215;27;19934;-56
2022/04/23 00:51:29;;;;;;;;;;;21.20;36.40;;;;;;5147017;27;19933;-57
2022/04/23 00:53:54;;;;;;;;;;;21.20;36.30;;;;;;5141213;27;19923;-57
2022/04/23 00:56:20;;;;;;;;;;;21.20;36.40;;;;;;5138997;27;20367;-57
2022/04/23 00:58:46;;;;;;;;;;;21.30;36.50;;;;;;5143818;27;19930;-59
2022/04/23 01:01:12;;;;;;;;;;;21.30;36.50;;;;;;5122151;27;19965;-57
2022/04/23 01:03:39;;;;;;;;;;;21.10;36.90;;;;;;5142844;27;19931;-56
2022/04/23 01:06:04;;;;;;;;;;;21.20;36.80;;;;;;5145334;27;20245;-55
2022/04/23 01:08:33;;;;;;;;;;;21.20;36.90;;;;;;5122589;27;19926;-48
2022/04/23 01:10:59;;;;;;;;;;;21.10;37.10;;;;;;5146616;27;20294;-59
2022/04/23 01:13:25;;;;;;;;;;;21.20;36.90;;;;;;5141037;27;19971;-56
2022/04/23 01:16:02;;;;;;;;;;;21.00;37.30;;;;;;5136709;27;20018;-55
2022/04/23 01:18:28;;;;;;;;;;;21.30;37.00;;;;;;5145171;27;20417;-55
2022/04/23 01:20:54;;;;;;;;;;;21.10;37.30;;;;;;5140671;27;19923;-56
2022/04/23 01:23:20;;;;;;;;;;;21.30;37.10;;;;;;5140603;27;20138;-57
2022/04/23 01:25:46;;;;;;;;;;;21.20;37.20;;;;;;5146418;27;19923;-57
2022/04/23 01:28:12;;;;;;;;;;;21.20;37.30;;;;;;5140628;27;19936;-58
2022/04/23 01:30:38;;;;;;;;;;;21.30;37.20;;;;;;5144809;27;20413;-57
2022/04/23 01:33:04;;;;;;;;;;;21.10;37.40;;;;;;5140304;27;19923;-53
2022/04/23 01:35:31;;;;;;;;;;;21.10;37.40;;;;;;5137950;27;19948;-53
2022/04/23 01:37:57;;;;;;;;;;;21.10;37.50;;;;;;5145639;27;20014;-56
2022/04/23 01:40:22;;;;;;;;;;;21.10;37.50;;;;;;5141069;27;19979;-56
2022/04/23 01:42:48;;;;;;;;;;;21.20;37.40;;;;;;5144092;27;19976;-55
2022/04/23 01:45:14;;;;;;;;;;;21.00;37.70;;;;;;5149501;27;19927;-53
2022/04/23 01:47:40;;;;;;;;;;;21.30;37.40;;;;;;5143960;27;20363;-52
2022/04/23 01:50:06;;;;;;;;;;;21.20;37.40;;;;;;5145636;27;19950;-55
2022/04/23 01:52:32;;;;;;;;;;;21.10;37.60;;;;;;5126354;27;19923;-58
2022/04/23 01:54:58;;;;;;;;;;;21.30;37.40;;;;;;5142603;27;19934;-51
2022/04/23 01:57:23;;;;;;;;;;;21.10;37.70;;;;;;5149187;27;19975;-58
2022/04/23 01:59:49;;;;;;;;;;;21.20;37.50;;;;;;5143983;27;20459;-49
2022/04/23 02:02:15;;;;;;;;;;;21.20;37.60;;;;;;5143795;27;19934;-58
2022/04/23 02:04:41;;;;;;;;;;;21.20;37.50;;;;;;5149212;27;19976;-56
2022/04/23 02:07:07;;;;;;;;;;;21.00;37.90;;;;;;5143747;27;20395;-57
2022/04/23 02:09:34;;;;;;;;;;;21.30;37.50;;;;;;5142525;27;19929;-52
2022/04/23 02:11:59;;;;;;;;;;;21.10;37.80;;;;;;5145866;27;19923;-59
2022/04/23 02:14:25;;;;;;;;;;;21.20;37.60;;;;;;5143126;27;20313;-56
2022/04/23 02:16:51;;;;;;;;;;;21.20;37.70;;;;;;5149170;27;19934;-52
2022/04/23 02:19:17;;;;;;;;;;;21.30;37.60;;;;;;5143810;27;19931;-53
2022/04/23 02:21:44;;;;;;;;;;;21.20;37.80;;;;;;5143725;27;19975;-50
2022/04/23 02:24:10;;;;;;;;;;;21.20;37.80;;;;;;5149185;27;19945;-52
2022/04/23 02:26:36;;;;;;;;;;;21.20;37.90;;;;;;5143781;27;19957;-55
2022/04/23 02:29:02;;;;;;;;;;;21.20;37.90;;;;;;5140178;27;20663;-53
2022/04/23 02:31:27;;;;;;;;;;;21.10;38.00;;;;;;5147018;27;19945;-53
2022/04/23 02:33:53;;;;;;;;;;;21.20;38.00;;;;;;5143283;27;19923;-59
2022/04/23 02:36:20;;;;;;;;;;;21.20;37.90;;;;;;5148789;27;20010;-50
2022/04/23 02:38:51;;;;;;;;;;;21.20;38.10;;;;;;5124822;27;19931;-54
2022/04/23 02:41:17;;;;;;;;;;;21.20;38.10;;;;;;5143075;27;19931;-57
2022/04/23 02:43:43;;;;;;;;;;;21.20;38.10;;;;;;5148549;27;19934;-58
2022/04/23 02:46:08;;;;;;;;;;;21.20;38.10;;;;;;5142409;27;20034;-51
2022/04/23 02:48:35;;;;;;;;;;;21.20;38.30;;;;;;5120290;27;19923;-59
2022/04/23 02:51:01;;;;;;;;;;;21.20;38.20;;;;;;5147967;27;19923;-52
2022/04/23 02:53:28;;;;;;;;;;;21.20;38.30;;;;;;5143020;27;19930;-54
2022/04/23 02:55:57;;;;;;;;;;;21.10;38.30;;;;;;5140604;27;19923;-57
2022/04/23 02:58:26;;;;;;;;;;;21.20;38.20;;;;;;5148566;27;19970;-53
2022/04/23 03:00:55;;;;;;;;;;;21.00;38.60;;;;;;5142931;27;19950;-57
2022/04/23 03:03:21;;;;;;;;;;;21.30;38.20;;;;;;5148363;27;19923;-49
2022/04/23 03:05:47;;;;;;;;;;;21.10;38.40;;;;;;5139392;27;19927;-58
2022/04/23 03:08:13;;;;;;;;;;;21.20;38.30;;;;;;5141185;27;19932;-47
2022/04/23 03:10:42;;;;;;;;;;;21.10;38.60;;;;;;5148106;27;20339;-53
2022/04/23 03:13:08;;;;;;;;;;;21.10;38.50;;;;;;5142764;27;19924;-55
2022/04/23 03:15:34;;;;;;;;;;;21.10;38.40;;;;;;5142800;27;20261;-50
2022/04/23 03:18:04;;;;;;;;;;;21.10;38.50;;;;;;5129715;27;20281;-57
2022/04/23 03:20:29;;;;;;;;;;;21.30;38.30;;;;;;5142717;27;19923;-54
2022/04/23 03:22:55;;;;;;;;;;;21.00;38.60;;;;;;5145312;27;19930;-59
2022/04/23 03:25:22;;;;;;;;;;;21.20;38.30;;;;;;5141226;27;20386;-49
2022/04/23 03:27:48;;;;;;;;;;;21.00;38.70;;;;;;5141864;27;19975;-57
2022/04/23 03:30:14;;;;;;;;;;;21.30;38.30;;;;;;5147843;27;20331;-52
2022/04/23 03:32:41;;;;;;;;;;;21.00;38.90;;;;;;5142301;27;20378;-52
2022/04/23 03:35:06;;;;;;;;;;;21.30;38.30;;;;;;5142407;27;19931;-53
2022/04/23 03:37:33;;;;;;;;;;;21.00;38.70;;;;;;5147788;27;19930;-58
2022/04/23 03:39:59;;;;;;;;;;;21.20;38.30;;;;;;5142344;27;20013;-58
2022/04/23 03:42:25;;;;;;;;;;;21.00;38.70;;;;;;5138914;27;19938;-57
2022/04/23 03:44:51;;;;;;;;;;;21.20;38.30;;;;;;5145833;27;19975;-58
2022/04/23 03:47:16;;;;;;;;;;;21.10;38.60;;;;;;5141812;27;19923;-59
2022/04/23 03:49:42;;;;;;;;;;;21.30;38.20;;;;;;5147479;27;19938;-57
2022/04/23 03:52:10;;;;;;;;;;;21.10;38.50;;;;;;5142273;27;19931;-58
2022/04/23 03:54:36;;;;;;;;;;;21.30;38.10;;;;;;5142231;27;20029;-57
2022/04/23 03:57:02;;;;;;;;;;;21.10;38.50;;;;;;5147716;27;20018;-57
2022/04/23 03:59:29;;;;;;;;;;;21.20;38.10;;;;;;5141830;27;20353;-59
2022/04/23 04:01:55;;;;;;;;;;;21.10;38.40;;;;;;5137764;27;19937;-58
2022/04/23 04:04:21;;;;;;;;;;;21.20;38.00;;;;;;5146225;27;19969;-58
2022/04/23 04:06:47;;;;;;;;;;;21.00;38.50;;;;;;5141844;27;20301;-58
2022/04/23 04:09:13;;;;;;;;;;;21.20;37.90;;;;;;5147448;27;19923;-58
2022/04/23 04:14:23;;;;;;;;;;;21.20;37.80;;;;;;5141844;27;19927;-57
2022/04/23 04:16:49;;;;;;;;;;;21.10;37.90;;;;;;5147292;27;19923;-56
2022/04/23 04:19:15;;;;;;;;;;;21.30;37.40;;;;;;5138250;27;19977;-56
2022/04/23 04:21:44;;;;;;;;;;;21.20;37.80;;;;;;5139720;27;21340;-56
2022/04/23 04:24:12;;;;;;;;;;;21.30;37.40;;;;;;5146756;27;20306;-58
2022/04/23 04:26:41;;;;;;;;;;;21.10;37.70;;;;;;5141449;27;19926;-57
2022/04/23 04:29:07;;;;;;;;;;;21.30;37.40;;;;;;5141520;27;20184;-57
2022/04/23 04:31:51;;;;;;;;;;;21.00;37.70;;;;;;5126787;27;19927;-58
2022/04/23 04:34:18;;;;;;;;;;;21.30;37.20;;;;;;5141450;27;19922;-57
2022/04/23 04:36:44;;;;;;;;;;;21.10;37.50;;;;;;5139315;27;20381;-56
2022/04/23 04:39:10;;;;;;;;;;;21.30;37.20;;;;;;5143918;27;19927;-56
2022/04/23 04:41:36;;;;;;;;;;;21.10;37.40;;;;;;5141066;27;19934;-58
2022/04/23 04:44:02;;;;;;;;;;;21.20;37.20;;;;;;5146987;27;19927;-59
2022/04/23 04:46:28;;;;;;;;;;;21.10;37.40;;;;;;5141351;27;19923;-55
2022/04/23 04:48:54;;;;;;;;;;;21.20;37.20;;;;;;5141503;27;19930;-56
2022/04/23 04:51:19;;;;;;;;;;;21.20;37.10;;;;;;5146823;27;19927;-57
2022/04/23 04:53:45;;;;;;;;;;;21.10;37.10;;;;;;5141215;27;20294;-47
2022/04/23 04:56:11;;;;;;;;;;;21.10;37.20;;;;;;5137395;27;19979;-59
2022/04/23 04:58:37;;;;;;;;;;;21.10;37.20;;;;;;5145202;27;20430;-58
2022/04/23 05:01:03;;;;;;;;;;;21.00;37.50;;;;;;5140890;27;19923;-59
2022/04/23 05:03:29;;;;;;;;;;;21.10;37.20;;;;;;5146315;27;20438;-57
2022/04/23 05:05:55;;;;;;;;;;;21.10;37.30;;;;;;5141614;27;19927;-58
2022/04/23 05:08:20;;;;;;;;;;;21.20;37.00;;;;;;5141155;27;19923;-58
2022/04/23 05:10:47;;;;;;;;;;;21.00;37.40;;;;;;5146478;27;19923;-50
2022/04/23 05:13:12;;;;;;;;;;;21.20;37.00;;;;;;5139952;27;20407;-51
2022/04/23 05:15:39;;;;;;;;;;;21.10;37.30;;;;;;5118313;27;19927;-54
2022/04/23 05:18:04;;;;;;;;;;;21.20;37.10;;;;;;5149572;27;20309;-57
2022/04/23 05:20:30;;;;;;;;;;;21.00;37.20;;;;;;5144458;27;19923;-50
2022/04/23 05:22:56;;;;;;;;;;;21.30;37.00;;;;;;5147521;27;19931;-56
2022/04/23 05:25:22;;;;;;;;;;;21.10;37.20;;;;;;5147320;27;20363;-58
2022/04/23 05:27:47;;;;;;;;;;;21.10;37.30;;;;;;5144560;27;19931;-55
2022/04/23 05:30:13;;;;;;;;;;;21.10;37.10;;;;;;5149991;27;19931;-57
2022/04/23 05:32:39;;;;;;;;;;;21.10;37.30;;;;;;5141051;27;20018;-58
2022/04/23 05:35:05;;;;;;;;;;;21.20;37.10;;;;;;5142555;27;20427;-57
2022/04/23 05:37:31;;;;;;;;;;;21.10;37.20;;;;;;5149453;27;20282;-51
2022/04/23 05:39:56;;;;;;;;;;;21.20;37.20;;;;;;5144326;27;20018;-54
2022/04/23 05:42:22;;;;;;;;;;;21.30;37.10;;;;;;5145389;27;19923;-56
2022/04/23 05:44:48;;;;;;;;;;;21.20;37.30;;;;;;5149072;27;19927;-55
2022/04/23 05:47:14;;;;;;;;;;;21.30;37.20;;;;;;5144274;27;19923;-54
2022/04/23 05:49:39;;;;;;;;;;;21.10;37.40;;;;;;5149174;27;19931;-50
2022/04/23 05:52:05;;;;;;;;;;;21.20;37.20;;;;;;5139882;27;19934;-56
2022/04/23 05:54:31;;;;;;;;;;;21.10;37.30;;;;;;5124769;27;20349;-57
2022/04/23 05:56:57;;;;;;;;;;;21.10;37.30;;;;;;5149338;27;19930;-56
2022/04/23 05:59:28;;;;;;;;;;;21.10;37.10;;;;;;5144062;27;19927;-56
2022/04/23 06:01:55;;;;;;;;;;;21.10;37.40;;;;;;5143922;27;19923;-59
2022/04/23 06:04:22;;;;;;;;;;;21.30;36.90;;;;;;5149255;27;19931;-59
2022/04/23 06:06:48;;;;;;;;;;;21.00;37.50;;;;;;5143890;27;20326;-57
2022/04/23 06:09:14;;;;;;;;;;;21.30;37.00;;;;;;5127612;27;19930;-56
2022/04/23 06:11:40;;;;;;;;;;;21.10;37.30;;;;;;5141321;27;19927;-58
2022/04/23 06:14:05;;;;;;;;;;;21.30;37.10;;;;;;5143314;27;19933;-56
2022/04/23 06:16:31;;;;;;;;;;;21.00;37.40;;;;;;5149142;27;20283;-59
2022/04/23 06:18:57;;;;;;;;;;;21.30;37.00;;;;;;5143756;27;19935;-58
2022/04/23 06:21:23;;;;;;;;;;;21.00;37.50;;;;;;5143533;27;20012;-58
2022/04/23 06:23:49;;;;;;;;;;;21.30;37.00;;;;;;5148884;27;19961;-57
2022/04/23 06:26:14;;;;;;;;;;;21.10;37.30;;;;;;5124478;27;19927;-58
2022/04/23 06:28:40;;;;;;;;;;;21.30;37.10;;;;;;5143595;27;19927;-58
2022/04/23 06:31:06;;;;;;;;;;;21.00;37.60;;;;;;5143557;27;20449;-58
2022/04/23 06:33:32;;;;;;;;;;;21.20;37.10;;;;;;5143268;27;20450;-58
2022/04/23 06:35:58;;;;;;;;;;;21.10;37.30;;;;;;5130402;27;20294;-58
2022/04/23 06:38:24;;;;;;;;;;;21.20;37.00;;;;;;5143525;27;19937;-57
2022/04/23 06:40:51;;;;;;;;;;;21.20;37.00;;;;;;5143359;27;19923;-58
2022/04/23 06:43:17;;;;;;;;;;;21.20;36.70;;;;;;5148970;27;19923;-55
2022/04/23 06:45:43;;;;;;;;;;;21.10;37.00;;;;;;5140368;27;19975;-56
2022/04/23 06:48:08;;;;;;;;;;;21.30;36.60;;;;;;5142609;27;19923;-55
2022/04/23 06:50:35;;;;;;;;;;;21.10;37.00;;;;;;5146917;27;20370;-59
2022/04/23 06:53:00;;;;;;;;;;;21.20;36.60;;;;;;5143123;27;19927;-58
2022/04/23 06:55:26;;;;;;;;;;;21.20;36.60;;;;;;5148410;27;19930;-53
2022/04/23 06:57:52;;;;;;;;;;;21.20;36.50;;;;;;5143056;27;19984;-58
2022/04/23 07:00:19;;;;;;;;;;;21.10;36.70;;;;;;5143120;27;19937;-57
2022/04/23 07:02:45;;;;;;;;;;;21.20;36.50;;;;;;5148531;27;19927;-48
2022/04/23 07:05:11;;;;;;;;;;;21.00;36.80;;;;;;5138599;27;22477;-57
2022/04/23 07:07:37;;;;;;;;;;;21.20;36.40;;;;;;5141846;27;19976;-53
2022/04/23 07:10:03;;;;;;;;;;;21.10;36.40;;;;;;5148066;27;19923;-51
2022/04/23 07:12:29;;;;;;;;;;;21.30;36.30;;;;;;5142792;27;20014;-57
2022/04/23 07:14:54;;;;;;;;;;;21.20;36.30;;;;;;5148419;27;19956;-52
2022/04/23 07:17:24;;;;;;;;;;;21.20;36.30;;;;;;5142947;27;19927;-58
2022/04/23 07:19:53;;;;;;;;;;;21.20;36.30;;;;;;5142814;27;19929;-58
2022/04/23 07:22:19;;;;;;;;;;;21.10;36.60;;;;;;5141616;27;19923;-57
2022/04/23 07:24:45;;;;;;;;;;;21.30;36.20;;;;;;5140140;27;19922;-57
2022/04/23 07:27:11;;;;;;;;;;;21.00;36.80;;;;;;5142027;27;20375;-61
2022/04/23 07:29:39;;;;;;;;;;;21.30;36.20;;;;;;5147768;27;20013;-48
2022/04/23 07:32:05;;;;;;;;;;;21.00;36.80;;;;;;5142548;27;20411;-59
2022/04/23 07:37:31;;;;;;;;;;;21.10;36.50;;;;;;5147913;27;19929;-56
2022/04/23 07:39:58;;;;;;;;;;;21.20;36.40;;;;;;5141451;27;19924;-59
2022/04/23 07:42:24;;;;;;;;;;;21.20;36.40;;;;;;5138303;27;20010;-54
2022/04/23 07:44:50;;;;;;;;;;;21.20;36.60;;;;;;5147158;27;19935;-56
2022/04/23 07:47:16;;;;;;;;;;;21.30;36.40;;;;;;5142152;27;19926;-50
2022/04/23 07:49:42;;;;;;;;;;;21.10;36.90;;;;;;5147691;27;19923;-58
2022/04/23 07:52:08;;;;;;;;;;;21.30;36.60;;;;;;5142250;27;19927;-58
2022/04/23 07:54:37;;;;;;;;;;;21.20;36.60;;;;;;5142013;27;20354;-58
2022/04/23 07:57:03;;;;;;;;;;;21.10;36.80;;;;;;5147628;27;19927;-57
2022/04/23 07:59:29;;;;;;;;;;;21.30;36.50;;;;;;5139158;27;20635;-50
2022/04/23 08:01:56;;;;;;;;;;;21.10;36.90;;;;;;5140046;27;19923;-58
2022/04/23 08:04:22;;;;;;;;;;;21.30;36.50;;;;;;5147371;27;19923;-52
2022/04/23 08:06:47;;;;;;;;;;;21.10;36.70;;;;;;5141800;27;20435;-49
2022/04/23 08:09:13;;;;;;;;;;;21.20;36.60;;;;;;5147483;27;19927;-59
2022/04/23 08:11:39;;;;;;;;;;;21.20;36.40;;;;;;5141943;27;19959;-53
2022/04/23 08:14:05;;;;;;;;;;;21.20;36.50;;;;;;5141695;27;19923;-56
2022/04/23 08:16:31;;;;;;;;;;;21.20;36.40;;;;;;5147017;27;19923;-49
2022/04/23 08:18:56;;;;;;;;;;;21.10;36.50;;;;;;5137026;27;19944;-54
2022/04/23 08:21:22;;;;;;;;;;;21.30;36.30;;;;;;5140975;27;20671;-53
2022/04/23 08:23:48;;;;;;;;;;;21.10;36.60;;;;;;5146781;27;19924;-55
2022/04/23 08:26:14;;;;;;;;;;;21.20;36.50;;;;;;5141511;27;19931;-57
2022/04/23 08:31:24;;;;;;;;;;;21.00;36.60;;;;;;5146868;27;19934;-58
2022/04/23 08:33:59;;;;;;;;;;;21.30;36.10;;;;;;5141358;27;20065;-53
2022/04/23 08:36:26;;;;;;;;;;;21.10;36.40;;;;;;5138440;27;20339;-59
2022/04/23 08:38:55;;;;;;;;;;;21.20;36.30;;;;;;5141622;27;19923;-55
2022/04/23 08:41:25;;;;;;;;;;;21.00;36.70;;;;;;5141175;27;20407;-55
2022/04/23 08:43:51;;;;;;;;;;;21.30;36.40;;;;;;5146718;27;20037;-56
2022/04/23 08:46:17;;;;;;;;;;;21.20;36.30;;;;;;5141532;27;19957;-53
2022/04/23 08:48:43;;;;;;;;;;;21.10;36.60;;;;;;5141421;27;19923;-58
2022/04/23 08:51:10;;;;;;;;;;;21.20;36.30;;;;;;5131761;27;19923;-50
2022/04/23 08:53:36;;;;;;;;;;;21.10;36.50;;;;;;5144202;27;19933;-57
2022/04/23 08:56:02;;;;;;;;;;;21.30;36.20;;;;;;5121294;27;20418;-56
2022/04/23 08:58:29;;;;;;;;;;;21.20;36.40;;;;;;5149957;27;19923;-52
2022/04/23 09:00:55;;;;;;;;;;;21.30;36.40;;;;;;5144819;27;19941;-58
2022/04/23 09:03:21;;;;;;;;;;;21.30;36.20;;;;;;5150271;27;20438;-57
2022/04/23 09:05:53;;;;;;;;;;;21.10;36.50;;;;;;5144766;27;19934;-59
2022/04/23 09:08:19;;;;;;;;;;;21.30;36.10;;;;;;5126132;27;20385;-59
2022/04/23 09:10:51;;;;;;;;;;;21.20;36.40;;;;;;5150224;27;19934;-56
2022/04/23 09:13:24;;;;;;;;;;;21.10;36.60;;;;;;5141362;27;19934;-57
2022/04/23 09:24:13;;;;;;;;;;;21.00;36.70;;;;;;5144378;27;20021;-58
2022/04/23 09:26:39;;;;;;;;;;;21.30;36.40;;;;;;5149692;27;20027;-59
2022/04/23 09:29:14;;;;;;;;;;;21.20;36.60;;;;;;5144393;27;20386;-52
2022/04/23 09:31:41;;;;;;;;;;;21.30;36.50;;;;;;5140931;27;20342;-58
2022/04/23 09:34:23;;;;;;;;;;;21.30;36.30;;;;;;5148275;27;19929;-49
2022/04/23 09:36:50;;;;;;;;;;;21.20;36.70;;;;;;5144389;27;20419;-59
2022/04/23 09:39:27;;;;;;;;;;;21.20;36.50;;;;;;5144401;27;19975;-55
2022/04/23 09:41:52;;;;;;;;;;;21.10;36.70;;;;;;5131111;27;20025;-58
2022/04/23 09:44:18;;;;;;;;;;;21.20;36.40;;;;;;5125661;27;19927;-55
2022/04/23 09:46:44;;;;;;;;;;;21.20;36.50;;;;;;5125698;27;19929;-55
2022/04/23 09:49:11;;;;;;;;;;;21.20;36.50;;;;;;5147308;27;20038;-57
2022/04/23 09:51:37;;;;;;;;;;;21.30;36.50;;;;;;5141668;27;19927;-56
2022/04/23 09:54:03;;;;;;;;;;;21.10;36.60;;;;;;5143778;27;19929;-58
2022/04/23 09:56:29;;;;;;;;;;;21.20;36.40;;;;;;5131062;27;20353;-49
2022/04/23 09:58:56;;;;;;;;;;;21.10;36.70;;;;;;5144089;27;19927;-59
2022/04/23 10:01:22;;;;;;;;;;;21.30;36.30;;;;;;5148884;27;19927;-55
2022/04/23 10:03:49;;;;;;;;;;;21.10;36.70;;;;;;5140077;27;19927;-58
2022/04/23 10:06:16;;;;;;;;;;;21.20;36.40;;;;;;5143779;27;19930;-55
2022/04/23 10:08:43;;;;;;;;;;;21.20;36.50;;;;;;5144695;27;19979;-54
2022/04/23 10:11:19;;;;;;;;;;;21.20;36.60;;;;;;5142728;27;19929;-58
2022/04/23 10:13:46;;;;;;;;;;;21.30;36.50;;;;;;5143749;27;19953;-53
2022/04/23 10:16:13;;;;;;;;;;;21.20;36.70;;;;;;5129709;27;20392;-59
2022/04/23 10:18:39;;;;;;;;;;;21.20;36.60;;;;;;5143510;27;20392;-56
2022/04/23 10:21:09;;;;;;;;;;;21.30;36.50;;;;;;5144514;27;19934;-54
2022/04/23 10:23:53;;;;;;;;;;;21.10;36.70;;;;;;5148958;27;19926;-55
2022/04/23 10:26:35;;;;;;;;;;;21.20;36.70;;;;;;5140402;27;19923;-52
2022/04/23 10:29:01;;;;;;;;;;;21.20;36.60;;;;;;5141467;27;20612;-55
2022/04/23 10:31:27;;;;;;;;;;;21.20;36.70;;;;;;5148580;27;19930;-56
2022/04/23 10:33:53;;;;;;;;;;;21.20;36.50;;;;;;5143343;27;19930;-52
2022/04/23 10:36:19;;;;;;;;;;;21.10;36.70;;;;;;5148783;27;19927;-58
2022/04/23 10:38:51;;;;;;;;;;;21.20;36.60;;;;;;5142942;27;20642;-58
2022/04/23 10:41:21;;;;;;;;;;;21.20;36.70;;;;;;5125494;27;20022;-55
2022/04/23 10:43:47;;;;;;;;;;;21.20;36.70;;;;;;5129483;27;19923;-57
2022/04/23 10:46:31;;;;;;;;;;;21.30;36.40;;;;;;5139022;27;19924;-57
2022/04/23 10:49:17;;;;;;;;;;;21.20;36.60;;;;;;5141839;27;22329;-57
2022/04/23 10:51:44;;;;;;;;;;;21.30;36.50;;;;;;5148425;27;20268;-58
2022/04/23 10:54:10;;;;;;;;;;;21.30;36.60;;;;;;5143002;27;19929;-58
2022/04/23 10:56:36;;;;;;;;;;;21.20;36.70;;;;;;5143311;27;20298;-49
2022/04/23 10:59:02;;;;;;;;;;;21.20;36.70;;;;;;5148396;27;19923;-55
2022/04/23 11:01:31;;;;;;;;;;;21.20;36.50;;;;;;5143015;27;19927;-58
2022/04/23 11:03:57;;;;;;;;;;;21.30;36.40;;;;;;5138582;27;20386;-57
2022/04/23 11:12:22;;;;;;;;;;;21.30;36.40;;;;;;5141868;27;20310;-57
2022/04/23 11:14:48;;;;;;;;;;;21.30;36.50;;;;;;5147389;27;20581;-59
2022/04/23 11:17:14;;;;;;;;;;;21.30;36.50;;;;;;5142838;27;19927;-58
2022/04/23 11:19:40;;;;;;;;;;;21.20;36.60;;;;;;5142762;27;20035;-60
2022/04/23 11:22:09;;;;;;;;;;;21.20;36.90;;;;;;5143947;27;19937;-58
2022/04/23 11:24:34;;;;;;;;;;;21.30;36.80;;;;;;5123302;27;19923;-56
2022/04/23 11:27:00;;;;;;;;;;;21.20;36.90;;;;;;5123762;27;20014;-56
2022/04/23 11:29:27;;;;;;;;;;;21.10;36.90;;;;;;5148117;27;19930;-57
2022/04/23 11:31:53;;;;;;;;;;;21.20;36.90;;;;;;5142425;27;20382;-59
2022/04/23 11:34:19;;;;;;;;;;;21.20;36.90;;;;;;5147949;27;20406;-55
2022/04/23 11:36:45;;;;;;;;;;;21.20;37.00;;;;;;5142446;27;19923;-60
2022/04/23 11:39:13;;;;;;;;;;;21.20;37.10;;;;;;5140820;27;19949;-59
2022/04/23 11:41:42;;;;;;;;;;;21.20;37.10;;;;;;5144571;27;20038;-58
2022/04/23 11:44:12;;;;;;;;;;;21.30;36.90;;;;;;5141730;27;19931;-57
2022/04/23 11:46:44;;;;;;;;;;;21.30;36.80;;;;;;5142122;27;19927;-57
2022/04/23 11:49:10;;;;;;;;;;;21.30;37.00;;;;;;5147616;27;19923;-57
2022/04/23 11:51:39;;;;;;;;;;;21.20;37.10;;;;;;5142189;27;20372;-57
2022/04/23 11:54:05;;;;;;;;;;;21.30;37.00;;;;;;5142239;27;20033;-55
2022/04/23 11:56:32;;;;;;;;;;;21.20;37.00;;;;;;5147815;27;19931;-58
2022/04/23 11:59:09;;;;;;;;;;;21.30;37.00;;;;;;5137878;27;19923;-59
2022/04/23 12:01:34;;;;;;;;;;;21.30;36.90;;;;;;5145510;27;19923;-58
2022/04/23 12:04:00;;;;;;;;;;;21.30;37.00;;;;;;5143160;27;19934;-56
2022/04/23 12:06:26;;;;;;;;;;;21.20;37.00;;;;;;5141803;27;20429;-58
2022/04/23 12:09:03;;;;;;;;;;;21.20;37.00;;;;;;5147419;27;20013;-57
2022/04/23 12:11:29;;;;;;;;;;;21.20;37.10;;;;;;5141914;27;20136;-58
2022/04/23 12:13:55;;;;;;;;;;;21.20;37.10;;;;;;5141675;27;19935;-58
2022/04/23 12:16:33;;;;;;;;;;;21.30;37.00;;;;;;5124778;27;20329;-57
2022/04/23 12:19:03;;;;;;;;;;;21.30;37.10;;;;;;5139583;27;19926;-56
2022/04/23 12:21:29;;;;;;;;;;;21.30;37.10;;;;;;5141571;27;20328;-58
2022/04/23 12:23:55;;;;;;;;;;;21.30;36.90;;;;;;5146769;27;20242;-55
2022/04/23 12:26:21;;;;;;;;;;;21.20;37.10;;;;;;5141874;27;19923;-58
2022/04/23 12:42:21;;;;;;;;;;;21.50;36.70;;;;;;5141487;27;19948;-57
2022/04/23 12:44:46;;;;;;;;;;;21.50;36.80;;;;;;5141220;27;19923;-60
2022/04/23 12:47:13;;;;;;;;;;;21.30;36.90;;;;;;5146634;27;19931;-57
2022/04/23 12:49:50;;;;;;;;;;;21.40;37.00;;;;;;5141403;27;19971;-58
2022/04/23 12:52:22;;;;;;;;;;;21.30;37.10;;;;;;5140615;27;20440;-59
2022/04/23 12:55:07;;;;;;;;;;;21.30;37.20;;;;;;5142431;27;20066;-56
2022/04/23 12:57:36;;;;;;;;;;;21.30;37.20;;;;;;5140875;27;19971;-57
2022/04/23 13:00:02;;;;;;;;;;;21.30;37.20;;;;;;5140988;27;19930;-57
2022/04/23 13:02:35;;;;;;;;;;;21.20;37.30;;;;;;5146691;27;19930;-59
2022/04/23 13:05:05;;;;;;;;;;;21.30;37.20;;;;;;5141189;27;19931;-56
2022/04/23 13:10:15;;;;;;;;;;;21.30;37.30;;;;;;5146564;27;19929;-60
2022/04/23 13:12:41;;;;;;;;;;;21.30;37.20;;;;;;5136656;27;20033;-59
2022/04/23 13:15:07;;;;;;;;;;;21.40;37.10;;;;;;5126366;27;19973;-59
2022/04/23 13:17:34;;;;;;;;;;;21.40;37.20;;;;;;5142442;27;19927;-60
2022/04/23 13:20:01;;;;;;;;;;;21.40;37.40;;;;;;5140999;27;20068;-58
2022/04/23 13:22:28;;;;;;;;;;;21.40;37.40;;;;;;5146414;27;19923;-57
2022/04/23 13:24:53;;;;;;;;;;;21.40;37.50;;;;;;5141089;27;19927;-59
2022/04/23 13:27:19;;;;;;;;;;;21.30;37.50;;;;;;5140659;27;19930;-58
2022/04/23 13:29:45;;;;;;;;;;;21.40;37.60;;;;;;5143707;27;19987;-57
2022/04/23 13:32:11;;;;;;;;;;;21.30;37.70;;;;;;5138535;27;19923;-59
2022/04/23 13:34:36;;;;;;;;;;;21.30;37.70;;;;;;5141428;27;20025;-57
2022/04/23 13:37:02;;;;;;;;;;;21.30;37.60;;;;;;5147072;27;20359;-59
2022/04/23 13:39:28;;;;;;;;;;;21.30;37.60;;;;;;5144203;27;20298;-58
2022/04/23 13:41:54;;;;;;;;;;;21.20;37.60;;;;;;5149797;27;19927;-57
2022/04/23 13:44:20;;;;;;;;;;;21.30;37.60;;;;;;5144213;27;20263;-58
2022/04/23 13:46:49;;;;;;;;;;;21.30;37.70;;;;;;5125489;27;19933;-59
2022/04/23 13:49:14;;;;;;;;;;;21.30;37.70;;;;;;5145209;27;19927;-59
2022/04/23 13:51:40;;;;;;;;;;;21.30;37.80;;;;;;5142892;27;19927;-56
2022/04/23 13:54:06;;;;;;;;;;;21.30;37.70;;;;;;5144041;27;19927;-59
2022/04/23 13:56:33;;;;;;;;;;;21.40;37.70;;;;;;5149669;27;20340;-59
2022/04/23 13:58:59;;;;;;;;;;;21.30;37.70;;;;;;5144047;27;20023;-58
2022/04/23 14:01:25;;;;;;;;;;;21.40;37.60;;;;;;5149360;27;19923;-57
2022/04/23 14:12:12;;;;;;;;;;;21.40;37.80;;;;;;5149189;27;20426;-60
2022/04/23 14:14:37;;;;;;;;;;;21.30;37.70;;;;;;5143734;27;19978;-56
2022/04/23 14:17:03;;;;;;;;;;;21.50;37.60;;;;;;5148397;27;19937;-55
2022/04/23 14:19:29;;;;;;;;;;;21.30;37.80;;;;;;5145101;27;20013;-59
2022/04/23 14:21:55;;;;;;;;;;;21.40;37.80;;;;;;5143490;27;20429;-57
2022/04/23 14:24:21;;;;;;;;;;;21.40;37.80;;;;;;5147865;27;19934;-58
2022/04/23 14:26:47;;;;;;;;;;;21.40;37.70;;;;;;5139835;27;19927;-58
2022/04/23 14:29:12;;;;;;;;;;;21.40;37.60;;;;;;5142804;27;20389;-57
2022/04/23 14:31:38;;;;;;;;;;;21.40;37.60;;;;;;5148809;27;20003;-59
2022/04/23 14:34:04;;;;;;;;;;;21.50;37.60;;;;;;5143467;27;19962;-58
2022/04/23 14:36:30;;;;;;;;;;;21.40;37.70;;;;;;5145716;27;19951;-58
2022/04/23 14:38:56;;;;;;;;;;;21.50;37.70;;;;;;5146864;27;19927;-56
2022/04/23 14:41:23;;;;;;;;;;;21.50;37.70;;;;;;5143388;27;19930;-57
2022/04/23 14:43:49;;;;;;;;;;;21.40;37.70;;;;;;5145523;27;20305;-58
2022/04/23 14:46:15;;;;;;;;;;;21.40;37.80;;;;;;5141403;27;20659;-56
2022/04/23 14:48:40;;;;;;;;;;;21.50;37.80;;;;;;5142721;27;19960;-59
2022/04/23 14:53:50;;;;;;;;;;;21.60;37.50;;;;;;5143413;27;20494;-60
2022/04/23 14:56:16;;;;;;;;;;;21.60;37.50;;;;;;5143303;27;19935;-58
2022/04/23 14:58:42;;;;;;;;;;;21.60;37.70;;;;;;5148653;27;20063;-58
2022/04/23 15:01:08;;;;;;;;;;;21.50;37.90;;;;;;5141804;27;19963;-59
2022/04/23 15:03:35;;;;;;;;;;;21.50;37.80;;;;;;5142441;27;20587;-58
2022/04/23 15:06:02;;;;;;;;;;;21.50;37.80;;;;;;5145684;27;19923;-59